sensor_id;sensor_type;location;lat;lon;timestamp;temperature;humidity
72320;SHT30;60269;52.502;16.732;2022-09-29T00:03:39;7.48;98.93
72320;SHT30;60269;52.502;16.732;2022-09-29T00:07:24;7.50;98.88
72320;SHT30;60269;52.502;16.732;2022-09-29T00:11:14;7.52;98.92
72320;SHT30;60269;52.502;16.732;2022-09-29T00:15:00;7.60;98.63
72320;SHT30;60269;52.502;16.732;2022-09-29T00:18:55;7.58;98.68
72320;SHT30;60269;52.502;16.732;2022-09-29T00:22:34;7.60;98.70
72320;SHT30;60269;52.502;16.732;2022-09-29T00:26:25;7.66;98.56
72320;SHT30;60269;52.502;16.732;2022-09-29T00:30:11;7.67;98.46
72320;SHT30;60269;52.502;16.732;2022-09-29T00:34:02;7.70;98.53
72320;SHT30;60269;52.502;16.732;2022-09-29T00:37:41;7.70;98.50
72320;SHT30;60269;52.502;16.732;2022-09-29T00:41:35;7.70;98.80
72320;SHT30;60269;52.502;16.732;2022-09-29T00:45:22;7.69;98.68
72320;SHT30;60269;52.502;16.732;2022-09-29T00:49:44;7.71;98.70
72320;SHT30;60269;52.502;16.732;2022-09-29T00:53:25;7.74;98.55
72320;SHT30;60269;52.502;16.732;2022-09-29T00:57:22;7.76;98.58
72320;SHT30;60269;52.502;16.732;2022-09-29T01:01:10;7.74;98.62
72320;SHT30;60269;52.502;16.732;2022-09-29T01:05:07;7.76;98.66
72320;SHT30;60269;52.502;16.732;2022-09-29T01:08:52;7.76;98.73
72320;SHT30;60269;52.502;16.732;2022-09-29T01:12:45;7.79;98.78
72320;SHT30;60269;52.502;16.732;2022-09-29T01:16:34;7.80;98.77
72320;SHT30;60269;52.502;16.732;2022-09-29T01:20:30;7.83;98.64
72320;SHT30;60269;52.502;16.732;2022-09-29T01:24:32;7.84;98.66
72320;SHT30;60269;52.502;16.732;2022-09-29T01:32:55;7.81;98.93
72320;SHT30;60269;52.502;16.732;2022-09-29T01:36:52;7.84;99.12
72320;SHT30;60269;52.502;16.732;2022-09-29T01:41:01;7.83;99.09
72320;SHT30;60269;52.502;16.732;2022-09-29T01:45:01;7.80;99.03
72320;SHT30;60269;52.502;16.732;2022-09-29T01:48:45;7.80;99.01
72320;SHT30;60269;52.502;16.732;2022-09-29T01:52:46;7.76;99.04
72320;SHT30;60269;52.502;16.732;2022-09-29T01:56:40;7.74;99.11
72320;SHT30;60269;52.502;16.732;2022-09-29T02:00:38;7.74;99.16
72320;SHT30;60269;52.502;16.732;2022-09-29T02:04:26;7.77;98.96
72320;SHT30;60269;52.502;16.732;2022-09-29T02:08:32;7.70;98.87
72320;SHT30;60269;52.502;16.732;2022-09-29T02:12:17;7.67;98.76
72320;SHT30;60269;52.502;16.732;2022-09-29T02:16:12;7.65;98.73
72320;SHT30;60269;52.502;16.732;2022-09-29T02:19:52;7.66;98.39
72320;SHT30;60269;52.502;16.732;2022-09-29T02:23:51;7.63;98.40
72320;SHT30;60269;52.502;16.732;2022-09-29T02:27:30;7.69;98.44
72320;SHT30;60269;52.502;16.732;2022-09-29T02:31:22;7.66;98.46
72320;SHT30;60269;52.502;16.732;2022-09-29T02:35:03;7.65;98.09
72320;SHT30;60269;52.502;16.732;2022-09-29T02:47:36;7.66;98.30
72320;SHT30;60269;52.502;16.732;2022-09-29T02:51:40;7.65;98.01
72320;SHT30;60269;52.502;16.732;2022-09-29T03:00:07;7.66;97.92
72320;SHT30;60269;52.502;16.732;2022-09-29T03:03:47;7.69;97.99
72320;SHT30;60269;52.502;16.732;2022-09-29T03:07:58;7.70;97.96
72320;SHT30;60269;52.502;16.732;2022-09-29T03:11:36;7.80;98.03
72320;SHT30;60269;52.502;16.732;2022-09-29T03:15:28;7.83;98.10
72320;SHT30;60269;52.502;16.732;2022-09-29T03:19:06;7.90;98.06
72320;SHT30;60269;52.502;16.732;2022-09-29T03:22:57;7.86;97.80
72320;SHT30;60269;52.502;16.732;2022-09-29T03:26:36;7.86;97.98
72320;SHT30;60269;52.502;16.732;2022-09-29T03:30:34;7.79;97.61
72320;SHT30;60269;52.502;16.732;2022-09-29T03:34:34;7.79;97.19
72320;SHT30;60269;52.502;16.732;2022-09-29T03:38:34;7.74;97.27
72320;SHT30;60269;52.502;16.732;2022-09-29T03:42:13;7.73;97.08
72320;SHT30;60269;52.502;16.732;2022-09-29T03:46:15;7.66;96.95
72320;SHT30;60269;52.502;16.732;2022-09-29T03:50:13;7.62;96.73
72320;SHT30;60269;52.502;16.732;2022-09-29T03:53:53;7.60;96.38
72320;SHT30;60269;52.502;16.732;2022-09-29T03:57:51;7.60;96.51
72320;SHT30;60269;52.502;16.732;2022-09-29T04:01:51;7.60;96.46
72320;SHT30;60269;52.502;16.732;2022-09-29T04:05:29;7.59;96.45
72320;SHT30;60269;52.502;16.732;2022-09-29T04:09:28;7.58;96.27
72320;SHT30;60269;52.502;16.732;2022-09-29T04:13:07;7.55;96.22
72320;SHT30;60269;52.502;16.732;2022-09-29T04:17:03;7.55;95.72
72320;SHT30;60269;52.502;16.732;2022-09-29T04:20:42;7.62;95.65
72320;SHT30;60269;52.502;16.732;2022-09-29T04:24:41;7.62;95.68
72320;SHT30;60269;52.502;16.732;2022-09-29T04:28:40;7.62;95.93
72320;SHT30;60269;52.502;16.732;2022-09-29T04:32:18;7.65;95.79
72320;SHT30;60269;52.502;16.732;2022-09-29T04:36:16;7.63;96.01
72320;SHT30;60269;52.502;16.732;2022-09-29T04:40:15;7.70;95.71
72320;SHT30;60269;52.502;16.732;2022-09-29T04:44:14;7.70;95.75
72320;SHT30;60269;52.502;16.732;2022-09-29T04:47:53;7.71;95.52
72320;SHT30;60269;52.502;16.732;2022-09-29T04:51:45;7.74;95.82
72320;SHT30;60269;52.502;16.732;2022-09-29T04:55:23;7.73;96.09
72320;SHT30;60269;52.502;16.732;2022-09-29T04:59:23;7.81;95.97
72320;SHT30;60269;52.502;16.732;2022-09-29T05:03:21;7.70;96.33
72320;SHT30;60269;52.502;16.732;2022-09-29T05:07:01;7.60;96.70
72320;SHT30;60269;52.502;16.732;2022-09-29T05:11:07;7.58;97.27
72320;SHT30;60269;52.502;16.732;2022-09-29T05:14:46;7.52;97.61
72320;SHT30;60269;52.502;16.732;2022-09-29T05:18:38;7.52;97.51
72320;SHT30;60269;52.502;16.732;2022-09-29T05:22:16;7.56;97.68
72320;SHT30;60269;52.502;16.732;2022-09-29T05:26:17;7.63;97.73
72320;SHT30;60269;52.502;16.732;2022-09-29T05:29:55;7.79;97.63
72320;SHT30;60269;52.502;16.732;2022-09-29T05:33:46;7.87;96.90
72320;SHT30;60269;52.502;16.732;2022-09-29T05:37:25;7.97;96.74
72320;SHT30;60269;52.502;16.732;2022-09-29T05:41:24;8.12;96.43
72320;SHT30;60269;52.502;16.732;2022-09-29T05:45:23;8.15;95.71
72320;SHT30;60269;52.502;16.732;2022-09-29T05:49:02;8.18;95.70
72320;SHT30;60269;52.502;16.732;2022-09-29T05:53:02;8.08;95.43
72320;SHT30;60269;52.502;16.732;2022-09-29T05:57:02;8.17;95.57
72320;SHT30;60269;52.502;16.732;2022-09-29T06:00:40;8.11;95.37
72320;SHT30;60269;52.502;16.732;2022-09-29T06:04:39;8.17;94.66
72320;SHT30;60269;52.502;16.732;2022-09-29T06:08:17;8.20;94.75
72320;SHT30;60269;52.502;16.732;2022-09-29T06:12:09;8.27;95.08
72320;SHT30;60269;52.502;16.732;2022-09-29T06:15:52;8.34;94.21
72320;SHT30;60269;52.502;16.732;2022-09-29T06:19:51;8.27;94.17
72320;SHT30;60269;52.502;16.732;2022-09-29T06:23:31;8.17;94.07
72320;SHT30;60269;52.502;16.732;2022-09-29T06:27:23;8.11;94.30
72320;SHT30;60269;52.502;16.732;2022-09-29T06:31:03;8.21;94.13
72320;SHT30;60269;52.502;16.732;2022-09-29T06:35:03;8.22;93.62
72320;SHT30;60269;52.502;16.732;2022-09-29T06:39:21;8.17;93.49
72320;SHT30;60269;52.502;16.732;2022-09-29T06:42:59;8.41;93.19
72320;SHT30;60269;52.502;16.732;2022-09-29T06:46:58;8.63;91.86
72320;SHT30;60269;52.502;16.732;2022-09-29T06:50:57;8.89;90.67
72320;SHT30;60269;52.502;16.732;2022-09-29T06:54:40;8.50;91.89
72320;SHT30;60269;52.502;16.732;2022-09-29T06:58:40;8.68;91.81
72320;SHT30;60269;52.502;16.732;2022-09-29T07:02:18;8.75;91.36
72320;SHT30;60269;52.502;16.732;2022-09-29T07:06:10;8.75;91.62
72320;SHT30;60269;52.502;16.732;2022-09-29T07:09:51;8.84;91.46
72320;SHT30;60269;52.502;16.732;2022-09-29T07:13:50;8.65;91.64
72320;SHT30;60269;52.502;16.732;2022-09-29T07:17:52;8.75;91.25
72320;SHT30;60269;52.502;16.732;2022-09-29T07:21:30;8.60;91.55
72320;SHT30;60269;52.502;16.732;2022-09-29T07:25:29;8.59;91.99
72320;SHT30;60269;52.502;16.732;2022-09-29T07:29:23;8.72;90.86
72320;SHT30;60269;52.502;16.732;2022-09-29T07:33:17;8.94;89.83
72320;SHT30;60269;52.502;16.732;2022-09-29T07:37:09;9.04;90.49
72320;SHT30;60269;52.502;16.732;2022-09-29T07:41:09;8.91;91.63
72320;SHT30;60269;52.502;16.732;2022-09-29T07:44:48;8.87;91.31
72320;SHT30;60269;52.502;16.732;2022-09-29T07:48:40;8.80;90.64
72320;SHT30;60269;52.502;16.732;2022-09-29T07:52:19;8.99;90.35
72320;SHT30;60269;52.502;16.732;2022-09-29T07:56:20;9.14;88.54
72320;SHT30;60269;52.502;16.732;2022-09-29T08:00:20;9.38;88.54
72320;SHT30;60269;52.502;16.732;2022-09-29T08:04:05;9.31;87.92
72320;SHT30;60269;52.502;16.732;2022-09-29T08:08:02;9.44;87.12
72320;SHT30;60269;52.502;16.732;2022-09-29T08:11:42;9.31;87.99
72320;SHT30;60269;52.502;16.732;2022-09-29T08:15:46;9.28;88.65
72320;SHT30;60269;52.502;16.732;2022-09-29T08:19:31;9.58;86.84
72320;SHT30;60269;52.502;16.732;2022-09-29T08:23:23;9.45;85.19
72320;SHT30;60269;52.502;16.732;2022-09-29T08:27:02;9.76;86.43
72320;SHT30;60269;52.502;16.732;2022-09-29T08:31:01;9.55;87.14
72320;SHT30;60269;52.502;16.732;2022-09-29T08:34:46;9.56;86.48
72320;SHT30;60269;52.502;16.732;2022-09-29T08:38:31;9.63;85.46
72320;SHT30;60269;52.502;16.732;2022-09-29T08:42:39;9.75;83.75
72320;SHT30;60269;52.502;16.732;2022-09-29T08:46:45;10.13;83.21
72320;SHT30;60269;52.502;16.732;2022-09-29T08:50:50;10.40;82.67
72320;SHT30;60269;52.502;16.732;2022-09-29T08:54:42;10.48;82.07
72320;SHT30;60269;52.502;16.732;2022-09-29T08:58:28;10.43;83.05
72320;SHT30;60269;52.502;16.732;2022-09-29T09:07:08;10.47;81.32
72320;SHT30;60269;52.502;16.732;2022-09-29T09:15:19;10.18;84.04
72320;SHT30;60269;52.502;16.732;2022-09-29T09:23:26;10.61;82.18
72320;SHT30;60269;52.502;16.732;2022-09-29T09:27:23;10.93;80.46
72320;SHT30;60269;52.502;16.732;2022-09-29T09:35:41;10.60;82.07
72320;SHT30;60269;52.502;16.732;2022-09-29T09:39:39;10.85;81.36
72320;SHT30;60269;52.502;16.732;2022-09-29T09:43:39;11.12;76.92
72320;SHT30;60269;52.502;16.732;2022-09-29T09:47:34;11.05;78.10
72320;SHT30;60269;52.502;16.732;2022-09-29T09:55:24;11.92;76.21
72320;SHT30;60269;52.502;16.732;2022-09-29T10:00:21;12.45;73.43
72320;SHT30;60269;52.502;16.732;2022-09-29T10:03:37;13.24;69.90
72320;SHT30;60269;52.502;16.732;2022-09-29T10:07:36;13.59;67.57
72320;SHT30;60269;52.502;16.732;2022-09-29T10:15:23;13.44;69.73
72320;SHT30;60269;52.502;16.732;2022-09-29T10:19:03;14.57;66.53
72320;SHT30;60269;52.502;16.732;2022-09-29T10:27:25;16.52;59.19
72320;SHT30;60269;52.502;16.732;2022-09-29T10:31:33;15.92;59.22
72320;SHT30;60269;52.502;16.732;2022-09-29T10:35:26;16.09;59.81
72320;SHT30;60269;52.502;16.732;2022-09-29T10:43:39;16.63;57.51
72320;SHT30;60269;52.502;16.732;2022-09-29T10:47:19;16.30;58.86
72320;SHT30;60269;52.502;16.732;2022-09-29T10:51:21;17.33;57.52
72320;SHT30;60269;52.502;16.732;2022-09-29T10:55:02;17.50;55.16
72320;SHT30;60269;52.502;16.732;2022-09-29T10:58:57;18.51;50.77
72320;SHT30;60269;52.502;16.732;2022-09-29T11:02:38;18.93;50.36
72320;SHT30;60269;52.502;16.732;2022-09-29T11:06:39;18.25;50.95
72320;SHT30;60269;52.502;16.732;2022-09-29T11:10:38;19.25;50.94
72320;SHT30;60269;52.502;16.732;2022-09-29T11:18:28;20.03;48.19
72320;SHT30;60269;52.502;16.732;2022-09-29T11:26:52;18.11;51.23
72320;SHT30;60269;52.502;16.732;2022-09-29T11:55:49;14.41;62.15
72320;SHT30;60269;52.502;16.732;2022-09-29T12:12:17;13.52;63.23
72320;SHT30;60269;52.502;16.732;2022-09-29T12:16:13;13.62;63.51
72320;SHT30;60269;52.502;16.732;2022-09-29T12:20:17;13.62;64.19
72320;SHT30;60269;52.502;16.732;2022-09-29T12:23:57;13.90;63.61
72320;SHT30;60269;52.502;16.732;2022-09-29T12:27:53;13.87;63.78
72320;SHT30;60269;52.502;16.732;2022-09-29T12:31:43;13.82;64.66
72320;SHT30;60269;52.502;16.732;2022-09-29T12:35:41;13.26;64.94
72320;SHT30;60269;52.502;16.732;2022-09-29T12:43:43;13.00;66.97
72320;SHT30;60269;52.502;16.732;2022-09-29T12:51:51;12.97;64.84
72320;SHT30;60269;52.502;16.732;2022-09-29T12:59:41;13.03;66.78
72320;SHT30;60269;52.502;16.732;2022-09-29T13:11:19;12.79;67.60
72320;SHT30;60269;52.502;16.732;2022-09-29T13:19:41;12.79;66.88
72320;SHT30;60269;52.502;16.732;2022-09-29T13:24:05;12.84;65.93
72320;SHT30;60269;52.502;16.732;2022-09-29T13:27:59;13.03;67.34
72320;SHT30;60269;52.502;16.732;2022-09-29T13:31:45;13.16;66.78
72320;SHT30;60269;52.502;16.732;2022-09-29T13:35:37;13.26;65.80
72320;SHT30;60269;52.502;16.732;2022-09-29T13:39:25;13.49;65.40
72320;SHT30;60269;52.502;16.732;2022-09-29T13:43:36;13.73;66.28
72320;SHT30;60269;52.502;16.732;2022-09-29T13:47:32;13.83;64.70
72320;SHT30;60269;52.502;16.732;2022-09-29T13:51:41;13.67;64.38
72320;SHT30;60269;52.502;16.732;2022-09-29T13:55:55;13.52;63.96
72320;SHT30;60269;52.502;16.732;2022-09-29T14:00:03;13.67;64.84
72320;SHT30;60269;52.502;16.732;2022-09-29T14:03:49;13.90;63.72
72320;SHT30;60269;52.502;16.732;2022-09-29T14:07:42;13.79;63.88
72320;SHT30;60269;52.502;16.732;2022-09-29T14:11:41;13.63;65.00
72320;SHT30;60269;52.502;16.732;2022-09-29T14:15:38;13.69;64.98
72320;SHT30;60269;52.502;16.732;2022-09-29T14:19:35;13.66;64.49
72320;SHT30;60269;52.502;16.732;2022-09-29T14:27:28;13.79;63.09
72320;SHT30;60269;52.502;16.732;2022-09-29T14:31:49;13.74;62.94
72320;SHT30;60269;52.502;16.732;2022-09-29T14:39:52;13.53;66.22
72320;SHT30;60269;52.502;16.732;2022-09-29T14:44:29;13.51;64.42
72320;SHT30;60269;52.502;16.732;2022-09-29T14:48:46;13.53;65.03
72320;SHT30;60269;52.502;16.732;2022-09-29T14:57:55;13.35;65.90
72320;SHT30;60269;52.502;16.732;2022-09-29T15:01:28;13.24;66.17
72320;SHT30;60269;52.502;16.732;2022-09-29T15:05:21;13.18;67.36
72320;SHT30;60269;52.502;16.732;2022-09-29T15:09:23;13.16;67.16
72320;SHT30;60269;52.502;16.732;2022-09-29T15:17:51;13.12;67.97
72320;SHT30;60269;52.502;16.732;2022-09-29T15:25:35;13.04;68.39
72320;SHT30;60269;52.502;16.732;2022-09-29T15:29:23;12.88;64.23
72320;SHT30;60269;52.502;16.732;2022-09-29T15:33:23;12.73;65.45
72320;SHT30;60269;52.502;16.732;2022-09-29T15:37:13;12.53;66.63
72320;SHT30;60269;52.502;16.732;2022-09-29T15:45:00;12.21;67.76
72320;SHT30;60269;52.502;16.732;2022-09-29T15:49:15;12.08;68.20
72320;SHT30;60269;52.502;16.732;2022-09-29T15:53:01;11.97;68.49
72320;SHT30;60269;52.502;16.732;2022-09-29T15:57:01;11.89;69.01
72320;SHT30;60269;52.502;16.732;2022-09-29T16:01:18;11.78;68.68
72320;SHT30;60269;52.502;16.732;2022-09-29T16:05:20;11.74;67.97
72320;SHT30;60269;52.502;16.732;2022-09-29T16:09:02;11.71;68.59
72320;SHT30;60269;52.502;16.732;2022-09-29T16:13:03;11.67;69.43
72320;SHT30;60269;52.502;16.732;2022-09-29T16:17:07;11.60;68.96
72320;SHT30;60269;52.502;16.732;2022-09-29T16:20:46;11.51;69.06
72320;SHT30;60269;52.502;16.732;2022-09-29T16:24:54;11.41;69.68
72320;SHT30;60269;52.502;16.732;2022-09-29T16:33:14;11.33;70.90
72320;SHT30;60269;52.502;16.732;2022-09-29T16:37:16;11.26;72.03
72320;SHT30;60269;52.502;16.732;2022-09-29T16:40:55;11.22;72.27
72320;SHT30;60269;52.502;16.732;2022-09-29T16:44:54;11.09;73.32
72320;SHT30;60269;52.502;16.732;2022-09-29T16:48:38;11.03;73.78
72320;SHT30;60269;52.502;16.732;2022-09-29T16:52:43;10.89;74.35
72320;SHT30;60269;52.502;16.732;2022-09-29T16:56:30;10.71;74.42
72320;SHT30;60269;52.502;16.732;2022-09-29T17:00:30;10.50;76.12
72320;SHT30;60269;52.502;16.732;2022-09-29T17:04:09;10.32;78.71
72320;SHT30;60269;52.502;16.732;2022-09-29T17:08:04;10.12;80.03
72320;SHT30;60269;52.502;16.732;2022-09-29T17:11:42;10.00;81.47
72320;SHT30;60269;52.502;16.732;2022-09-29T17:15:41;9.89;81.92
72320;SHT30;60269;52.502;16.732;2022-09-29T17:19:41;9.85;83.19
72320;SHT30;60269;52.502;16.732;2022-09-29T17:23:40;9.83;84.30
72320;SHT30;60269;52.502;16.732;2022-09-29T17:27:34;9.79;84.72
72320;SHT30;60269;52.502;16.732;2022-09-29T17:31:54;9.71;85.71
72320;SHT30;60269;52.502;16.732;2022-09-29T17:35:36;9.68;86.34
72320;SHT30;60269;52.502;16.732;2022-09-29T17:39:39;9.61;87.48
72320;SHT30;60269;52.502;16.732;2022-09-29T17:43:38;9.52;88.15
72320;SHT30;60269;52.502;16.732;2022-09-29T17:47:23;9.32;87.96
72320;SHT30;60269;52.502;16.732;2022-09-29T17:51:21;9.13;88.31
72320;SHT30;60269;52.502;16.732;2022-09-29T17:55:00;8.96;89.54
72320;SHT30;60269;52.502;16.732;2022-09-29T17:58:55;8.76;90.26
72320;SHT30;60269;52.502;16.732;2022-09-29T18:02:35;8.56;91.56
72320;SHT30;60269;52.502;16.732;2022-09-29T18:06:26;8.48;92.43
72320;SHT30;60269;52.502;16.732;2022-09-29T18:10:17;8.55;92.57
72320;SHT30;60269;52.502;16.732;2022-09-29T18:14:16;8.72;91.46
72320;SHT30;60269;52.502;16.732;2022-09-29T18:18:03;8.65;90.25
72320;SHT30;60269;52.502;16.732;2022-09-29T18:21:48;8.60;89.48
72320;SHT30;60269;52.502;16.732;2022-09-29T18:25:33;8.50;89.56
72320;SHT30;60269;52.502;16.732;2022-09-29T18:29:25;8.55;90.33
72320;SHT30;60269;52.502;16.732;2022-09-29T18:33:04;8.62;90.84
72320;SHT30;60269;52.502;16.732;2022-09-29T18:36:56;8.68;91.94
72320;SHT30;60269;52.502;16.732;2022-09-29T18:40:41;8.76;93.02
72320;SHT30;60269;52.502;16.732;2022-09-29T18:44:26;8.80;92.82
72320;SHT30;60269;52.502;16.732;2022-09-29T18:48:14;8.84;91.66
72320;SHT30;60269;52.502;16.732;2022-09-29T18:52:06;8.87;90.99
72320;SHT30;60269;52.502;16.732;2022-09-29T18:56:01;8.94;90.96
72320;SHT30;60269;52.502;16.732;2022-09-29T18:59:46;9.00;91.49
72320;SHT30;60269;52.502;16.732;2022-09-29T19:03:33;8.91;91.63
72320;SHT30;60269;52.502;16.732;2022-09-29T19:07:33;8.93;91.11
72320;SHT30;60269;52.502;16.732;2022-09-29T19:11:32;8.81;91.10
72320;SHT30;60269;52.502;16.732;2022-09-29T19:15:12;8.81;90.85
72320;SHT30;60269;52.502;16.732;2022-09-29T19:19:10;8.69;92.44
72320;SHT30;60269;52.502;16.732;2022-09-29T19:23:09;8.50;94.32
72320;SHT30;60269;52.502;16.732;2022-09-29T19:26:54;8.25;95.94
72320;SHT30;60269;52.502;16.732;2022-09-29T19:30:48;8.20;97.02
72320;SHT30;60269;52.502;16.732;2022-09-29T19:34:30;7.84;96.69
72320;SHT30;60269;52.502;16.732;2022-09-29T19:38:21;7.31;96.42
72320;SHT30;60269;52.502;16.732;2022-09-29T19:42:06;6.80;97.45
72320;SHT30;60269;52.502;16.732;2022-09-29T19:46:05;6.98;98.94
72320;SHT30;60269;52.502;16.732;2022-09-29T19:49:43;7.05;99.09
72320;SHT30;60269;52.502;16.732;2022-09-29T19:53:55;7.11;99.46
72320;SHT30;60269;52.502;16.732;2022-09-29T19:57:57;7.04;99.52
72320;SHT30;60269;52.502;16.732;2022-09-29T20:01:57;6.94;99.73
72320;SHT30;60269;52.502;16.732;2022-09-29T20:05:37;6.87;99.75
72320;SHT30;60269;52.502;16.732;2022-09-29T20:09:30;6.79;99.85
72320;SHT30;60269;52.502;16.732;2022-09-29T20:13:16;6.79;99.90
72320;SHT30;60269;52.502;16.732;2022-09-29T20:17:07;6.60;99.94
72320;SHT30;60269;52.502;16.732;2022-09-29T20:20:45;6.49;99.99
72320;SHT30;60269;52.502;16.732;2022-09-29T20:24:37;6.32;99.99
72320;SHT30;60269;52.502;16.732;2022-09-29T20:28:23;6.14;99.99
72320;SHT30;60269;52.502;16.732;2022-09-29T20:32:17;5.94;99.99
72320;SHT30;60269;52.502;16.732;2022-09-29T20:36:00;6.09;99.99
72320;SHT30;60269;52.502;16.732;2022-09-29T20:39:51;5.98;99.99
72320;SHT30;60269;52.502;16.732;2022-09-29T20:43:37;5.68;99.99
72320;SHT30;60269;52.502;16.732;2022-09-29T20:47:28;5.48;99.99
72320;SHT30;60269;52.502;16.732;2022-09-29T20:51:09;5.33;99.99
72320;SHT30;60269;52.502;16.732;2022-09-29T20:55:01;5.39;99.99
72320;SHT30;60269;52.502;16.732;2022-09-29T20:58:48;5.35;99.99
72320;SHT30;60269;52.502;16.732;2022-09-29T21:02:47;5.36;99.99
72320;SHT30;60269;52.502;16.732;2022-09-29T21:06:50;5.30;99.99
72320;SHT30;60269;52.502;16.732;2022-09-29T21:10:29;5.15;99.99
72320;SHT30;60269;52.502;16.732;2022-09-29T21:14:28;4.95;99.99
72320;SHT30;60269;52.502;16.732;2022-09-29T21:18:06;4.87;99.99
72320;SHT30;60269;52.502;16.732;2022-09-29T21:21:58;4.81;99.99
72320;SHT30;60269;52.502;16.732;2022-09-29T21:25:36;4.74;99.99
72320;SHT30;60269;52.502;16.732;2022-09-29T21:29:36;4.72;99.99
72320;SHT30;60269;52.502;16.732;2022-09-29T21:33:13;4.72;99.99
72320;SHT30;60269;52.502;16.732;2022-09-29T21:37:05;4.84;99.99
72320;SHT30;60269;52.502;16.732;2022-09-29T21:40:43;4.77;99.99
72320;SHT30;60269;52.502;16.732;2022-09-29T21:44:42;4.46;99.99
72320;SHT30;60269;52.502;16.732;2022-09-29T21:48:26;4.40;99.99
72320;SHT30;60269;52.502;16.732;2022-09-29T21:52:18;4.33;99.99
72320;SHT30;60269;52.502;16.732;2022-09-29T21:56:01;4.21;99.99
72320;SHT30;60269;52.502;16.732;2022-09-29T22:00:01;4.46;99.99
72320;SHT30;60269;52.502;16.732;2022-09-29T22:03:40;4.34;99.99
72320;SHT30;60269;52.502;16.732;2022-09-29T22:07:32;4.58;99.99
72320;SHT30;60269;52.502;16.732;2022-09-29T22:11:11;4.61;99.99
72320;SHT30;60269;52.502;16.732;2022-09-29T22:15:10;4.48;99.99
72320;SHT30;60269;52.502;16.732;2022-09-29T22:18:49;4.48;99.99
72320;SHT30;60269;52.502;16.732;2022-09-29T22:23:02;4.41;99.99
72320;SHT30;60269;52.502;16.732;2022-09-29T22:26:40;4.19;99.99
72320;SHT30;60269;52.502;16.732;2022-09-29T22:30:39;4.14;99.99
72320;SHT30;60269;52.502;16.732;2022-09-29T22:34:17;4.23;99.99
72320;SHT30;60269;52.502;16.732;2022-09-29T22:38:10;4.48;99.99
72320;SHT30;60269;52.502;16.732;2022-09-29T22:41:50;4.79;99.99
72320;SHT30;60269;52.502;16.732;2022-09-29T22:45:51;4.89;99.99
72320;SHT30;60269;52.502;16.732;2022-09-29T22:49:30;4.99;99.99
72320;SHT30;60269;52.502;16.732;2022-09-29T22:53:22;4.98;99.99
72320;SHT30;60269;52.502;16.732;2022-09-29T22:57:00;5.15;99.99
72320;SHT30;60269;52.502;16.732;2022-09-29T23:01:04;5.46;99.99
72320;SHT30;60269;52.502;16.732;2022-09-29T23:04:44;5.68;99.99
72320;SHT30;60269;52.502;16.732;2022-09-29T23:08:37;5.83;99.99
72320;SHT30;60269;52.502;16.732;2022-09-29T23:12:17;5.90;99.99
72320;SHT30;60269;52.502;16.732;2022-09-29T23:16:19;6.08;99.99
72320;SHT30;60269;52.502;16.732;2022-09-29T23:19:58;6.21;99.99
72320;SHT30;60269;52.502;16.732;2022-09-29T23:23:52;6.23;99.99
72320;SHT30;60269;52.502;16.732;2022-09-29T23:27:32;6.29;99.99
72320;SHT30;60269;52.502;16.732;2022-09-29T23:31:30;6.32;99.83
72320;SHT30;60269;52.502;16.732;2022-09-29T23:35:33;6.35;99.72
72320;SHT30;60269;52.502;16.732;2022-09-29T23:39:32;6.35;99.63
72320;SHT30;60269;52.502;16.732;2022-09-29T23:43:10;6.29;99.63
72320;SHT30;60269;52.502;16.732;2022-09-29T23:47:09;6.21;99.60
72320;SHT30;60269;52.502;16.732;2022-09-29T23:50:47;6.25;99.58
72320;SHT30;60269;52.502;16.732;2022-09-29T23:54:39;6.29;99.61
72320;SHT30;60269;52.502;16.732;2022-09-29T23:58:17;6.44;99.61
